Time;durP1;ratioP1;P1;durP2;ratioP2;P2;SDS_P1;SDS_P2;PMS_P1;PMS_P2;Temp;Humidity;BMP_temperature;BMP_pressure;BME280_temperature;BME280_humidity;BME280_pressure;Samples;Min_cycle;Max_cycle;Signal;HPM_P1;HPM_P2
2023/11/01 00:03:31;;;;;;;5.07;1.55;;;14.70;99.90;;;;;;10482646;28;20129;-35
2023/11/01 00:08:33;;;;;;;5.22;1.02;;;14.50;99.90;;;;;;10498732;28;20097;-36
2023/11/01 00:13:36;;;;;;;12.63;1.63;;;16.40;99.90;;;;;;10497272;28;20129;-30
2023/11/01 00:18:37;;;;;;;11.57;2.05;;;16.00;99.90;;;;;;10484977;28;20085;-34
2023/11/01 00:23:39;;;;;;;4.82;1.23;;;15.60;99.90;;;;;;10477277;28;20088;-36
2023/11/01 00:28:42;;;;;;;4.23;1.30;;;16.20;99.90;;;;;;10497218;28;20098;-33
2023/11/01 00:33:44;;;;;;;6.57;1.55;;;17.00;99.90;;;;;;10506609;28;20097;-34
2023/11/01 00:38:46;;;;;;;4.33;1.43;;;17.50;99.90;;;;;;10490168;28;20132;-27
2023/11/01 00:43:49;;;;;;;3.50;1.77;;;16.40;99.90;;;;;;10502941;28;20130;-39
2023/11/01 00:48:51;;;;;;;2.85;1.40;;;16.80;99.90;;;;;;10502253;28;20040;-33
2023/11/01 00:53:52;;;;;;;6.90;2.37;;;17.30;99.90;;;;;;10504636;28;20510;-35
2023/11/01 00:58:55;;;;;;;7.37;1.47;;;16.60;99.90;;;;;;10507433;28;20055;-34
2023/11/01 01:03:58;;;;;;;4.88;1.30;;;16.70;99.90;;;;;;10497603;28;20080;-33
2023/11/01 01:09:00;;;;;;;;;;;17.30;99.90;;;;;;10506920;28;20040;-30
2023/11/01 01:14:03;;;;;;;7.97;2.03;;;17.50;99.90;;;;;;10504665;28;19928;-34
2023/11/01 01:19:05;;;;;;;3.33;1.67;;;17.50;99.90;;;;;;10507273;28;20385;-33
2023/11/01 01:24:07;;;;;;;9.13;1.15;;;17.20;99.90;;;;;;10498390;28;20131;-32
2023/11/01 01:29:10;;;;;;;4.13;1.33;;;18.00;99.30;;;;;;10502020;28;20064;-29
2023/11/01 01:34:12;;;;;;;1.70;1.00;;;16.80;99.90;;;;;;10504572;28;20154;-41
2023/11/01 01:39:14;;;;;;;3.00;1.43;;;16.80;99.90;;;;;;10485806;28;20070;-31
2023/11/01 01:44:17;;;;;;;5.27;1.00;;;17.80;99.90;;;;;;10499291;28;20510;-37
2023/11/01 01:49:19;;;;;;;2.80;0.90;;;18.00;99.30;;;;;;10501857;28;20083;-34
2023/11/01 01:54:20;;;;;;;1.20;0.80;;;18.40;97.10;;;;;;10502965;28;20051;-31
2023/11/01 01:59:24;;;;;;;1.60;0.77;;;18.10;98.20;;;;;;10496336;28;20445;-28
2023/11/01 02:04:27;;;;;;;2.22;0.90;;;18.10;98.50;;;;;;10500697;28;20487;-32
2023/11/01 02:09:29;;;;;;;3.80;1.30;;;18.40;97.00;;;;;;10496602;28;20043;-40
2023/11/01 02:14:32;;;;;;;1.60;0.85;;;18.60;96.20;;;;;;10475021;28;20052;-36
2023/11/01 02:19:34;;;;;;;4.55;1.58;;;18.50;96.30;;;;;;10501791;28;20861;-33
2023/11/01 02:24:37;;;;;;;3.80;1.10;;;18.80;95.00;;;;;;10504178;28;20177;-31
2023/11/01 02:29:39;;;;;;;2.00;1.20;;;19.00;94.40;;;;;;10495813;28;20123;-28
2023/11/01 02:34:41;;;;;;;1.83;1.20;;;18.90;94.60;;;;;;10505264;28;20468;-35
2023/11/01 02:39:44;;;;;;;3.50;1.55;;;18.90;94.40;;;;;;10506033;28;20481;-41
2023/11/01 02:44:45;;;;;;;2.92;1.27;;;18.50;95.30;;;;;;10491843;28;20133;-38
2023/11/01 02:49:47;;;;;;;4.00;1.50;;;18.30;96.30;;;;;;10498879;28;20439;-29
2023/11/01 02:54:50;;;;;;;3.20;1.07;;;18.70;95.20;;;;;;10499110;28;20553;-33
2023/11/01 02:59:52;;;;;;;1.63;0.95;;;18.70;95.10;;;;;;10500936;28;20076;-30
2023/11/01 03:04:54;;;;;;;2.53;1.07;;;18.90;94.30;;;;;;10487917;28;20498;-33
2023/11/01 03:09:57;;;;;;;2.40;0.63;;;18.80;94.10;;;;;;10503742;28;20551;-35
2023/11/01 03:14:59;;;;;;;3.08;0.80;;;18.90;93.80;;;;;;10500710;28;20097;-31
2023/11/01 03:20:01;;;;;;;2.03;0.82;;;19.00;93.70;;;;;;10481565;28;20044;-40
2023/11/01 03:25:04;;;;;;;1.42;0.80;;;19.10;93.40;;;;;;10500133;28;20150;-40
2023/11/01 03:30:08;;;;;;;2.58;0.80;;;19.10;93.30;;;;;;10500956;28;20052;-35
2023/11/01 03:35:10;;;;;;;2.80;0.85;;;19.20;93.00;;;;;;10495423;28;20498;-30
2023/11/01 03:40:13;;;;;;;2.85;0.93;;;19.10;93.00;;;;;;10498697;28;20084;-40
2023/11/01 03:45:15;;;;;;;2.25;0.70;;;19.20;92.70;;;;;;10490288;28;20044;-30
2023/11/01 03:50:17;;;;;;;1.42;0.60;;;19.20;92.60;;;;;;10501359;28;20078;-32
2023/11/01 03:55:20;;;;;;;1.33;0.85;;;19.20;92.80;;;;;;10482686;28;20503;-33
2023/11/01 04:15:29;;;;;;;1.38;0.60;;;19.00;92.90;;;;;;10539731;27;20127;-30
2023/11/01 04:20:31;;;;;;;5.40;2.58;;;18.60;94.70;;;;;;10552167;28;20071;-32
2023/11/01 04:25:35;;;;;;;1.30;0.75;;;18.30;95.60;;;;;;10550559;28;20051;-30
2023/11/01 04:30:39;;;;;;;4.60;1.13;;;18.20;96.60;;;;;;10550507;28;20488;-32
2023/11/01 04:35:40;;;;;;;2.20;0.70;;;17.30;99.90;;;;;;10553141;28;20043;-43
2023/11/01 04:40:42;;;;;;;3.23;1.37;;;17.40;99.90;;;;;;10549956;28;20093;-42
2023/11/01 04:45:46;;;;;;;2.30;1.63;;;16.40;99.90;;;;;;10547830;28;20488;-38
2023/11/01 04:50:48;;;;;;;1.92;1.63;;;15.80;99.90;;;;;;10552590;28;20554;-39
2023/11/01 04:55:51;;;;;;;1.10;0.98;;;15.40;99.90;;;;;;10546722;28;20469;-28
2023/11/01 05:00:54;;;;;;;5.80;1.50;;;15.10;99.90;;;;;;10548839;28;20056;-31
2023/11/01 05:05:56;;;;;;;3.15;0.68;;;15.10;99.90;;;;;;10549220;28;20411;-34
2023/11/01 05:10:58;;;;;;;4.95;1.10;;;15.80;99.90;;;;;;10548688;28;20048;-33
2023/11/01 05:16:01;;;;;;;5.15;1.58;;;14.80;99.90;;;;;;10548076;28;20506;-30
2023/11/01 05:21:05;;;;;;;10.45;2.25;;;14.60;99.90;;;;;;10546807;28;20123;-33
2023/11/01 05:26:07;;;;;;;6.75;2.10;;;15.20;99.90;;;;;;10522656;28;20573;-31
2023/11/01 05:31:10;;;;;;;4.28;1.20;;;15.10;99.90;;;;;;10515856;28;20837;-27
2023/11/01 05:36:14;;;;;;;8.02;1.52;;;15.70;99.90;;;;;;10519697;28;20610;-34
2023/11/01 05:41:15;;;;;;;9.35;2.08;;;15.30;99.90;;;;;;10521459;28;20059;-29
2023/11/01 05:46:22;;;;;;;10.57;2.85;;;15.40;99.90;;;;;;10519188;28;20966;-37
2023/11/01 05:51:23;;;;;;;9.90;2.47;;;15.40;99.90;;;;;;10518099;28;24104;-32
2023/11/01 05:56:26;;;;;;;10.57;1.90;;;15.40;99.90;;;;;;10512958;28;20190;-35
2023/11/01 06:01:30;;;;;;;15.80;2.17;;;15.10;99.90;;;;;;10516685;28;20039;-33
2023/11/01 06:06:32;;;;;;;11.57;1.88;;;15.10;99.90;;;;;;10508585;28;20117;-30
2023/11/01 06:11:34;;;;;;;3.17;1.10;;;14.60;99.90;;;;;;10515210;28;20189;-29
2023/11/01 06:16:37;;;;;;;6.93;1.57;;;14.80;99.90;;;;;;10511349;28;20135;-50
2023/11/01 06:21:39;;;;;;;11.75;2.10;;;15.10;99.90;;;;;;10513699;28;20040;-51
2023/11/01 06:26:41;;;;;;;4.93;2.33;;;15.10;99.90;;;;;;10517234;28;20036;-32
2023/11/01 06:31:44;;;;;;;13.30;2.40;;;15.00;99.90;;;;;;10510606;28;20048;-37
2023/11/01 06:36:45;;;;;;;14.63;2.75;;;15.90;99.90;;;;;;10513776;28;20048;-44
2023/11/01 06:41:47;;;;;;;6.85;2.38;;;16.00;99.90;;;;;;10506782;28;20594;-38
2023/11/01 06:46:50;;;;;;;2.72;0.95;;;16.30;99.90;;;;;;10508001;28;20056;-34
2023/11/01 06:51:52;;;;;;;10.80;1.95;;;16.60;99.90;;;;;;10509024;28;20460;-36
2023/11/01 06:56:54;;;;;;;5.73;1.20;;;16.30;99.90;;;;;;10508959;28;20371;-35
2023/11/01 07:01:57;;;;;;;7.07;1.70;;;16.60;99.90;;;;;;10510883;28;21618;-33
2023/11/01 07:06:58;;;;;;;11.48;1.90;;;16.60;99.90;;;;;;10513270;28;20131;-32
2023/11/01 07:12:00;;;;;;;6.77;1.40;;;16.50;99.90;;;;;;10512349;28;20504;-35
2023/11/01 07:17:03;;;;;;;12.03;1.93;;;17.10;99.90;;;;;;10514778;28;20051;-38
2023/11/01 07:22:05;;;;;;;7.10;1.48;;;17.20;99.90;;;;;;10510584;28;20051;-34
2023/11/01 07:27:07;;;;;;;10.10;1.60;;;16.90;99.90;;;;;;10510021;28;20098;-44
2023/11/01 07:32:10;;;;;;;9.13;1.47;;;16.60;99.90;;;;;;10511054;28;20127;-29
2023/11/01 07:37:12;;;;;;;3.20;0.80;;;17.20;99.90;;;;;;10512976;28;20554;-40
2023/11/01 07:42:14;;;;;;;5.43;1.00;;;18.10;99.90;;;;;;10505540;28;20048;-38
2023/11/01 07:47:17;;;;;;;4.90;1.00;;;17.60;99.90;;;;;;10511397;28;20086;-35
2023/11/01 07:52:18;;;;;;;7.40;1.10;;;17.40;99.90;;;;;;10510034;28;20056;-40
2023/11/01 07:57:20;;;;;;;8.37;1.70;;;17.60;99.90;;;;;;10509502;28;20072;-36
2023/11/01 08:02:24;;;;;;;1.10;0.70;;;17.80;99.90;;;;;;10510122;28;20032;-39
2023/11/01 08:07:26;;;;;;;5.72;1.10;;;18.40;98.50;;;;;;10508291;28;20054;-33
2023/11/01 08:12:27;;;;;;;7.85;1.75;;;18.90;96.80;;;;;;10507124;28;20084;-34
2023/11/01 08:17:31;;;;;;;10.33;1.70;;;19.00;96.30;;;;;;10508890;28;20040;-34
2023/11/01 08:22:33;;;;;;;6.10;1.35;;;18.20;98.60;;;;;;10509090;28;20488;-32
2023/11/01 08:27:35;;;;;;;3.50;0.80;;;18.30;98.90;;;;;;10508599;28;20036;-32
2023/11/01 08:32:40;;;;;;;3.88;0.90;;;18.60;97.50;;;;;;10514228;28;20075;-29
2023/11/01 08:37:42;;;;;;;7.00;0.88;;;19.00;96.10;;;;;;10512390;28;20485;-31
2023/11/01 08:42:44;;;;;;;4.93;1.13;;;18.90;96.40;;;;;;10512454;28;20611;-36
2023/11/01 08:47:47;;;;;;;5.43;1.30;;;18.70;96.90;;;;;;10508935;28;20143;-42
2023/11/01 08:52:49;;;;;;;11.13;2.53;;;19.00;96.20;;;;;;10510358;28;20105;-33
2023/11/01 08:57:50;;;;;;;7.05;1.08;;;18.50;97.40;;;;;;10511469;28;20067;-33
2023/11/01 09:02:54;;;;;;;9.83;1.10;;;18.30;98.50;;;;;;10516665;28;20101;-29
2023/11/01 09:07:55;;;;;;;2.42;0.80;;;18.90;96.60;;;;;;10518599;28;20235;-49
2023/11/01 09:12:57;;;;;;;12.33;1.90;;;19.20;95.60;;;;;;10518546;28;20140;-32
2023/11/01 09:18:00;;;;;;;8.07;3.00;;;19.00;95.80;;;;;;10514885;28;20506;-33
2023/11/01 09:23:02;;;;;;;14.65;6.65;;;18.80;96.00;;;;;;10515518;28;20173;-36
2023/11/01 09:28:04;;;;;;;19.88;9.85;;;19.00;95.70;;;;;;10521466;28;20055;-38
2023/11/01 09:33:08;;;;;;;24.15;12.82;;;19.10;95.10;;;;;;10518755;28;20113;-34
2023/11/01 09:38:09;;;;;;;39.88;16.13;;;19.20;94.90;;;;;;10512027;28;20305;-37
2023/11/01 09:43:16;;;;;;;42.40;21.42;;;18.40;97.50;;;;;;10515400;28;20369;-41
2023/11/01 09:48:19;;;;;;;50.72;25.65;;;18.80;96.30;;;;;;10517586;28;20657;-37
2023/11/01 09:53:21;;;;;;;41.97;22.75;;;18.80;96.30;;;;;;10508429;28;20071;-39
2023/11/01 09:58:26;;;;;;;50.03;26.58;;;19.00;95.30;;;;;;10517753;28;20117;-36
2023/11/01 10:03:29;;;;;;;60.72;31.80;;;19.30;95.10;;;;;;10504960;28;20040;-39
2023/11/01 10:08:32;;;;;;;30.65;16.00;;;19.00;95.40;;;;;;10513849;28;20131;-39
2023/11/01 10:13:34;;;;;;;52.65;26.73;;;18.80;95.70;;;;;;10516944;28;20454;-32
2023/11/01 10:18:37;;;;;;;56.42;29.13;;;18.60;96.80;;;;;;10515085;28;20078;-33
2023/11/01 10:23:39;;;;;;;47.03;24.95;;;19.00;95.40;;;;;;10514410;28;20475;-33
2023/11/01 10:28:42;;;;;;;46.38;24.75;;;19.20;94.70;;;;;;10511022;28;20055;-38
2023/11/01 10:33:45;;;;;;;51.13;26.88;;;19.20;94.50;;;;;;10514542;28;20450;-33
2023/11/01 10:38:48;;;;;;;41.95;21.52;;;19.40;94.10;;;;;;10513341;28;20052;-29
2023/11/01 10:43:50;;;;;;;50.38;27.33;;;19.00;94.60;;;;;;10513189;28;20044;-31
2023/11/01 10:48:54;;;;;;;33.17;17.85;;;18.90;95.50;;;;;;10513879;28;20044;-32
2023/11/01 10:53:58;;;;;;;36.90;19.38;;;18.90;95.30;;;;;;10513103;28;20584;-43
2023/11/01 10:59:07;;;;;;;45.78;20.58;;;19.00;94.40;;;;;;10511570;28;20540;-36
2023/11/01 11:04:21;;;;;;;42.42;23.33;;;19.20;94.10;;;;;;10510155;28;20080;-35
2023/11/01 11:09:24;;;;;;;41.25;23.52;;;19.20;94.20;;;;;;10508767;28;20051;-38
2023/11/01 11:14:42;;;;;;;26.58;13.27;;;19.40;93.70;;;;;;10511641;28;20492;-29
2023/11/01 11:20:13;;;;;;;34.15;18.25;;;18.90;94.60;;;;;;10513221;28;20075;-34
2023/11/01 11:25:49;;;;;;;32.55;16.27;;;18.90;94.90;;;;;;10508305;28;20043;-45
2023/11/01 11:30:58;;;;;;;36.78;18.23;;;19.00;94.60;;;;;;10509668;28;20054;-43
2023/11/01 11:36:16;;;;;;;32.17;16.50;;;19.20;94.40;;;;;;10510247;28;20042;-51
2023/11/01 11:41:19;;;;;;;33.67;17.13;;;19.40;93.30;;;;;;10507408;28;20429;-36
2023/11/01 11:46:32;;;;;;;24.27;10.93;;;19.00;94.20;;;;;;10510036;28;20942;-29
2023/11/01 11:51:36;;;;;;;22.13;11.63;;;19.10;93.90;;;;;;10505836;28;20062;-41
2023/11/01 11:56:38;;;;;;;24.13;14.10;;;19.20;93.10;;;;;;10510851;28;20047;-43
2023/11/01 12:01:39;;;;;;;24.35;12.27;;;19.10;94.50;;;;;;10508174;28;20040;-34
2023/11/01 12:06:45;;;;;;;23.38;12.27;;;19.30;93.40;;;;;;10511175;28;20043;-42
2023/11/01 12:11:49;;;;;;;23.20;10.80;;;19.40;93.00;;;;;;10513099;28;20131;-49
2023/11/01 12:16:52;;;;;;;11.88;4.95;;;19.30;92.90;;;;;;10509955;28;20051;-35
2023/11/01 12:21:59;;;;;;;11.15;5.90;;;19.10;93.80;;;;;;10511202;28;20071;-31
2023/11/01 12:27:04;;;;;;;12.52;4.47;;;18.80;94.80;;;;;;10509375;28;20143;-42
2023/11/01 12:32:08;;;;;;;14.23;8.18;;;18.60;94.60;;;;;;10511288;28;20170;-40
2023/11/01 12:37:15;;;;;;;15.63;8.30;;;18.50;95.70;;;;;;10522275;28;20063;-29
2023/11/01 12:42:23;;;;;;;13.70;7.78;;;19.20;93.80;;;;;;10521632;28;20052;-36
2023/11/01 12:47:27;;;;;;;14.20;7.20;;;18.80;95.40;;;;;;10515798;28;20048;-37
2023/11/01 12:52:30;;;;;;;16.67;8.60;;;19.20;94.20;;;;;;10517494;28;20054;-30
2023/11/01 12:57:32;;;;;;;10.88;4.90;;;19.20;94.20;;;;;;10513359;28;20469;-52
2023/11/01 13:02:33;;;;;;;13.15;6.10;;;18.80;94.80;;;;;;10514659;28;20134;-26
2023/11/01 13:07:37;;;;;;;6.82;4.10;;;19.00;95.10;;;;;;10515311;28;20104;-32
2023/11/01 13:12:39;;;;;;;11.18;5.25;;;19.40;92.80;;;;;;10512282;28;20078;-28
2023/11/01 13:17:41;;;;;;;10.05;4.15;;;19.60;92.80;;;;;;10516629;28;20084;-33
2023/11/01 13:22:44;;;;;;;6.25;3.95;;;19.40;92.30;;;;;;10515800;28;20537;-39
2023/11/01 13:27:46;;;;;;;11.07;4.95;;;19.50;92.50;;;;;;10521451;28;20048;-32
2023/11/01 13:32:48;;;;;;;10.07;5.05;;;19.70;92.60;;;;;;10522059;28;20097;-37
2023/11/01 13:37:51;;;;;;;9.23;5.00;;;19.00;94.40;;;;;;10516557;28;20042;-48
2023/11/01 13:42:53;;;;;;;11.38;3.58;;;19.20;93.20;;;;;;10518958;28;20141;-36
2023/11/01 13:47:55;;;;;;;8.40;2.25;;;19.00;93.80;;;;;;10514927;28;20101;-33
2023/11/01 13:52:58;;;;;;;8.93;3.60;;;18.60;93.50;;;;;;10519111;28;20056;-36
2023/11/01 13:57:59;;;;;;;11.75;4.63;;;19.20;94.80;;;;;;10518411;28;20517;-46
2023/11/01 14:03:02;;;;;;;9.50;3.70;;;19.60;93.20;;;;;;10518695;28;20040;-35
2023/11/01 14:08:06;;;;;;;4.82;2.75;;;19.40;93.70;;;;;;10513911;28;20033;-39
2023/11/01 14:13:08;;;;;;;6.28;3.50;;;19.40;93.00;;;;;;10513946;28;20128;-32
2023/11/01 14:18:09;;;;;;;4.28;3.10;;;19.30;93.70;;;;;;10513564;28;20492;-30
2023/11/01 14:23:13;;;;;;;6.03;3.38;;;19.70;92.50;;;;;;10513568;28;20056;-29
2023/11/01 14:28:17;;;;;;;8.85;3.80;;;19.70;92.70;;;;;;10513811;28;20044;-38
2023/11/01 14:33:19;;;;;;;7.88;2.10;;;19.70;92.60;;;;;;10511736;28;20045;-29
2023/11/01 14:38:22;;;;;;;7.18;2.05;;;19.60;93.10;;;;;;10510496;28;20435;-31
2023/11/01 14:43:25;;;;;;;8.57;2.65;;;19.30;93.80;;;;;;10507041;28;20044;-33
2023/11/01 14:48:27;;;;;;;9.25;2.47;;;19.30;94.40;;;;;;10511740;28;20075;-31
2023/11/01 14:53:31;;;;;;;6.60;2.15;;;19.10;94.40;;;;;;10512928;28;20064;-39
2023/11/01 14:58:33;;;;;;;6.32;2.67;;;19.10;94.80;;;;;;10512201;28;20116;-36
2023/11/01 15:03:34;;;;;;;5.07;2.13;;;18.80;95.80;;;;;;10511343;28;20387;-40
2023/11/01 15:08:39;;;;;;;4.47;2.00;;;18.50;96.10;;;;;;10513988;28;20079;-41
2023/11/01 15:13:41;;;;;;;7.35;1.58;;;19.20;93.70;;;;;;10511124;28;20598;-36
2023/11/01 15:18:42;;;;;;;8.23;2.58;;;18.70;95.30;;;;;;10509332;28;20488;-31
2023/11/01 15:23:46;;;;;;;8.45;2.08;;;18.70;96.00;;;;;;10508841;28;20048;-42
2023/11/01 15:28:48;;;;;;;6.07;1.80;;;17.80;98.70;;;;;;10512669;28;20089;-36
2023/11/01 15:33:50;;;;;;;6.70;2.00;;;18.50;97.30;;;;;;10512494;28;20144;-30
2023/11/01 15:38:53;;;;;;;6.35;1.90;;;18.90;96.20;;;;;;10511859;28;20466;-42
2023/11/01 15:43:55;;;;;;;9.50;2.45;;;18.20;96.40;;;;;;10512301;28;20050;-30
2023/11/01 15:48:57;;;;;;;5.97;1.73;;;17.90;99.00;;;;;;10511273;28;20047;-41
2023/11/01 15:54:00;;;;;;;3.10;0.80;;;18.40;97.20;;;;;;10513816;28;20139;-30
2023/11/01 15:59:02;;;;;;;2.83;1.05;;;17.70;97.00;;;;;;10511894;28;20047;-38
2023/11/01 16:04:04;;;;;;;2.93;1.70;;;17.20;99.90;;;;;;10512873;28;20114;-38
2023/11/01 16:09:08;;;;;;;6.22;1.60;;;18.10;97.30;;;;;;10505694;28;20093;-42
2023/11/01 16:14:10;;;;;;;3.38;1.73;;;17.20;99.90;;;;;;10506289;28;20055;-38
2023/11/01 16:19:12;;;;;;;4.18;1.88;;;17.50;99.90;;;;;;10509477;28;20047;-33
2023/11/01 16:24:15;;;;;;;7.18;1.90;;;17.00;99.90;;;;;;10510988;28;20048;-35
2023/11/01 16:29:17;;;;;;;5.93;2.13;;;17.90;99.60;;;;;;10511686;28;20134;-33
2023/11/01 16:34:19;;;;;;;4.40;1.33;;;17.60;99.90;;;;;;10511584;28;20044;-31
2023/11/01 16:39:23;;;;;;;6.45;1.70;;;16.80;99.20;;;;;;10511176;28;20048;-37
2023/11/01 16:44:24;;;;;;;7.45;1.48;;;16.90;99.90;;;;;;10509120;28;20093;-36
2023/11/01 16:49:27;;;;;;;3.67;1.37;;;17.10;99.90;;;;;;10504805;28;20060;-28
2023/11/01 16:54:31;;;;;;;11.75;1.83;;;17.60;99.90;;;;;;10510152;28;20056;-37
2023/11/01 16:59:32;;;;;;;10.35;1.83;;;17.90;99.90;;;;;;10498693;28;20047;-29
2023/11/01 17:04:35;;;;;;;3.60;1.63;;;16.80;99.90;;;;;;10509680;28;20123;-30
2023/11/01 17:09:39;;;;;;;7.70;2.00;;;17.50;99.90;;;;;;10507209;28;20064;-36
2023/11/01 17:14:42;;;;;;;7.47;1.70;;;16.50;99.90;;;;;;10505772;28;20071;-33
2023/11/01 17:19:44;;;;;;;7.70;2.22;;;16.80;99.90;;;;;;10510270;28;20063;-35
2023/11/01 17:24:47;;;;;;;9.27;1.85;;;16.50;99.90;;;;;;10516246;28;20205;-27
2023/11/01 17:29:49;;;;;;;4.05;1.73;;;16.70;99.90;;;;;;10519191;28;20048;-29
2023/11/01 17:34:50;;;;;;;3.33;1.17;;;15.80;99.90;;;;;;10514214;28;20116;-34
2023/11/01 17:39:54;;;;;;;6.80;1.57;;;16.30;99.90;;;;;;10514980;28;20465;-40
2023/11/01 17:44:56;;;;;;;3.90;1.13;;;15.20;99.90;;;;;;10514043;28;20128;-47
2023/11/01 17:50:00;;;;;;;2.38;1.08;;;15.20;99.90;;;;;;10513403;28;20117;-37
2023/11/01 17:55:05;;;;;;;5.18;1.15;;;14.80;99.90;;;;;;10515617;28;20060;-36
2023/11/01 18:00:08;;;;;;;5.78;0.95;;;14.80;99.90;;;;;;10517191;28;20078;-36
2023/11/01 18:05:32;;;;;;;9.73;1.02;;;14.10;99.90;;;;;;10512890;28;20591;-41
2023/11/01 18:10:40;;;;;;;3.60;0.90;;;14.40;99.90;;;;;;10511035;28;20048;-39
2023/11/01 18:15:42;;;;;;;5.80;1.10;;;14.30;99.90;;;;;;10514627;28;20040;-43
2023/11/01 18:20:44;;;;;;;6.43;1.20;;;14.30;99.90;;;;;;10511414;28;20036;-36
2023/11/01 18:26:07;;;;;;;3.42;1.42;;;15.10;99.90;;;;;;10513675;28;20044;-37
2023/11/01 18:31:20;;;;;;;5.97;1.00;;;16.20;99.90;;;;;;10512868;28;20059;-30
2023/11/01 18:36:22;;;;;;;11.75;1.33;;;14.60;99.90;;;;;;10514130;28;20036;-34
2023/11/01 18:41:29;;;;;;;2.33;1.13;;;15.20;99.90;;;;;;10515384;28;20126;-31
2023/11/01 18:46:32;;;;;;;4.85;1.45;;;14.50;99.90;;;;;;10513027;28;20047;-36
2023/11/01 18:52:01;;;;;;;5.18;1.10;;;15.70;99.90;;;;;;10515387;28;20059;-35
2023/11/01 18:57:06;;;;;;;5.03;1.30;;;14.80;99.90;;;;;;10488747;28;20889;-32
2023/11/01 19:02:10;;;;;;;6.43;2.05;;;15.10;99.90;;;;;;10512287;28;20550;-39
2023/11/01 19:07:14;;;;;;;4.25;1.10;;;14.30;99.90;;;;;;10515466;28;20154;-31
2023/11/01 19:12:24;;;;;;;7.00;1.00;;;14.80;99.90;;;;;;10511370;28;20403;-36
2023/11/01 19:17:31;;;;;;;1.67;0.73;;;14.50;99.90;;;;;;10509174;28;20044;-32
2023/11/01 19:22:33;;;;;;;3.42;1.20;;;15.00;99.90;;;;;;10509569;28;20044;-31
2023/11/01 19:27:36;;;;;;;8.35;1.23;;;16.30;99.90;;;;;;10512151;28;20079;-36
2023/11/01 19:32:42;;;;;;;6.43;2.17;;;14.10;99.90;;;;;;10511784;28;20089;-30
2023/11/01 19:37:44;;;;;;;6.03;1.17;;;14.80;99.90;;;;;;10511734;28;20127;-50
2023/11/01 19:42:47;;;;;;;6.00;1.20;;;15.20;99.90;;;;;;10510197;28;20125;-34
2023/11/01 19:47:49;;;;;;;6.05;1.40;;;14.10;99.90;;;;;;10510255;28;20990;-34
2023/11/01 19:52:50;;;;;;;3.30;1.10;;;14.00;99.90;;;;;;10511768;28;20138;-36
2023/11/01 19:57:54;;;;;;;3.53;1.00;;;16.40;99.90;;;;;;10508924;28;20143;-31
2023/11/01 20:02:56;;;;;;;2.30;1.30;;;15.60;99.90;;;;;;10511403;28;20048;-36
2023/11/01 20:07:58;;;;;;;4.00;1.37;;;16.00;99.90;;;;;;10512683;28;20066;-43
2023/11/01 20:13:02;;;;;;;5.75;1.30;;;17.00;99.90;;;;;;10504928;28;20032;-34
2023/11/01 20:18:05;;;;;;;6.50;1.83;;;16.90;98.20;;;;;;10507989;28;20127;-35
2023/11/01 20:23:06;;;;;;;3.83;1.27;;;16.30;96.60;;;;;;10505880;28;20132;-43
2023/11/01 20:28:20;;;;;;;6.27;1.50;;;16.20;99.90;;;;;;10508624;28;20052;-39
2023/11/01 20:33:22;;;;;;;5.28;1.63;;;17.10;99.30;;;;;;10507285;28;20105;-35
2023/11/01 20:38:24;;;;;;;6.80;1.67;;;16.90;99.90;;;;;;10508028;28;20048;-30
2023/11/01 20:43:28;;;;;;;5.17;1.60;;;17.40;99.90;;;;;;10510795;28;20101;-29
2023/11/01 20:48:31;;;;;;;8.30;2.38;;;16.70;96.80;;;;;;10506992;28;20134;-36
2023/11/01 20:53:33;;;;;;;5.38;1.90;;;17.20;99.90;;;;;;10508995;28;20044;-33
2023/11/01 20:58:36;;;;;;;4.30;1.50;;;17.40;99.90;;;;;;10515255;28;20071;-42
2023/11/01 21:03:38;;;;;;;7.22;1.60;;;17.90;99.00;;;;;;10518948;28;20102;-38
2023/11/01 21:08:39;;;;;;;8.40;2.15;;;18.50;95.80;;;;;;10516772;28;20084;-30
2023/11/01 21:13:43;;;;;;;9.30;1.83;;;18.40;95.70;;;;;;10514243;28;20048;-27
2023/11/01 21:18:45;;;;;;;8.35;1.98;;;18.30;96.50;;;;;;10515595;28;20055;-41
2023/11/01 21:23:47;;;;;;;3.92;2.08;;;18.90;94.80;;;;;;10508238;28;20044;-35
2023/11/01 21:28:50;;;;;;;8.98;3.28;;;18.90;93.90;;;;;;10516065;28;20660;-31
2023/11/01 21:33:52;;;;;;;8.75;3.10;;;19.00;93.60;;;;;;10514024;28;20048;-35
2023/11/01 21:38:57;;;;;;;4.43;2.08;;;19.10;93.40;;;;;;10514753;28;20140;-31
2023/11/01 21:44:00;;;;;;;7.53;2.10;;;18.70;93.30;;;;;;10517858;28;20052;-38
2023/11/01 21:49:06;;;;;;;9.30;2.80;;;18.90;92.50;;;;;;10516006;28;20062;-33
2023/11/01 21:54:21;;;;;;;10.00;3.15;;;19.00;93.00;;;;;;10519083;28;20048;-30
2023/11/01 21:59:25;;;;;;;6.97;1.95;;;19.10;92.60;;;;;;10514637;28;20048;-31
2023/11/01 22:04:32;;;;;;;6.00;2.47;;;18.80;93.10;;;;;;10516523;28;20458;-35
2023/11/01 22:09:33;;;;;;;5.70;2.65;;;19.00;92.30;;;;;;10516136;28;20476;-43
2023/11/01 22:14:39;;;;;;;5.78;2.50;;;19.00;92.40;;;;;;10519122;28;20052;-30
2023/11/01 22:19:43;;;;;;;6.85;2.88;;;19.10;91.50;;;;;;10515379;28;20032;-33
2023/11/01 22:24:45;;;;;;;6.63;2.72;;;18.90;92.50;;;;;;10518759;28;20044;-40
2023/11/01 22:29:49;;;;;;;7.40;3.22;;;18.80;92.80;;;;;;10517512;28;20071;-31
2023/11/01 22:34:52;;;;;;;6.13;2.65;;;19.00;92.50;;;;;;10512331;28;20377;-38
2023/11/01 22:39:55;;;;;;;7.15;2.60;;;18.80;93.00;;;;;;10514521;28;20117;-28
2023/11/01 22:45:00;;;;;;;6.07;2.97;;;19.00;92.40;;;;;;10494125;28;20057;-33
2023/11/01 22:50:02;;;;;;;8.93;3.30;;;19.00;91.80;;;;;;10515405;28;20627;-38
2023/11/01 22:55:04;;;;;;;7.22;3.10;;;18.90;92.20;;;;;;10516477;28;20066;-34
2023/11/01 23:00:10;;;;;;;6.05;2.75;;;18.90;91.90;;;;;;10516363;28;20032;-30
2023/11/01 23:05:14;;;;;;;8.60;3.38;;;18.80;91.90;;;;;;10514582;28;20122;-39
2023/11/01 23:10:16;;;;;;;5.80;3.28;;;19.00;91.80;;;;;;10503373;28;20047;-38
2023/11/01 23:15:19;;;;;;;9.07;4.18;;;19.00;91.60;;;;;;10510335;28;20492;-34
2023/11/01 23:20:22;;;;;;;5.68;3.20;;;18.80;92.00;;;;;;10509273;28;20043;-36
2023/11/01 23:25:28;;;;;;;7.60;4.05;;;18.90;91.70;;;;;;10511812;28;20040;-35
2023/11/01 23:30:47;;;;;;;8.73;3.88;;;18.70;91.90;;;;;;10512465;28;20038;-32
2023/11/01 23:35:49;;;;;;;7.68;3.22;;;19.00;91.20;;;;;;10511532;28;20174;-50
2023/11/01 23:40:51;;;;;;;9.43;4.07;;;18.70;91.70;;;;;;10511567;28;20075;-44
2023/11/01 23:46:13;;;;;;;10.13;4.63;;;18.70;91.80;;;;;;10512554;28;20040;-35
2023/11/01 23:51:48;;;;;;;8.47;3.60;;;18.90;91.10;;;;;;10511048;28;20040;-30
2023/11/01 23:56:50;;;;;;;9.98;4.85;;;18.70;92.00;;;;;;10510595;28;20548;-32
